sensor_id;sensor_type;location;lat;lon;timestamp;pressure;altitude;pressure_sealevel;temperature;humidity
48630;BME280;34426;52.180;4.462;2024-03-08T00:00:44;101976.88;;;3.41;100.00
48630;BME280;34426;52.180;4.462;2024-03-08T00:03:10;101972.91;;;3.28;100.00
48630;BME280;34426;52.180;4.462;2024-03-08T00:05:35;101966.22;;;3.38;100.00
48630;BME280;34426;52.180;4.462;2024-03-08T00:08:03;101961.44;;;3.31;100.00
48630;BME280;34426;52.180;4.462;2024-03-08T00:10:28;101957.25;;;3.36;100.00
48630;BME280;34426;52.180;4.462;2024-03-08T00:12:54;101957.63;;;3.32;100.00
48630;BME280;34426;52.180;4.462;2024-03-08T00:15:20;101953.53;;;3.28;100.00
48630;BME280;34426;52.180;4.462;2024-03-08T00:17:46;101956.31;;;3.28;100.00
48630;BME280;34426;52.180;4.462;2024-03-08T00:20:11;101951.63;;;3.29;100.00
48630;BME280;34426;52.180;4.462;2024-03-08T00:22:38;101961.53;;;3.38;100.00
48630;BME280;34426;52.180;4.462;2024-03-08T00:25:06;101965.25;;;3.30;100.00
48630;BME280;34426;52.180;4.462;2024-03-08T00:27:33;101949.91;;;3.28;100.00
48630;BME280;34426;52.180;4.462;2024-03-08T00:29:58;101954.13;;;3.24;100.00
48630;BME280;34426;52.180;4.462;2024-03-08T00:32:24;101960.88;;;3.21;100.00
48630;BME280;34426;52.180;4.462;2024-03-08T00:34:50;101950.88;;;3.20;100.00
48630;BME280;34426;52.180;4.462;2024-03-08T00:37:15;101946.78;;;3.16;100.00
48630;BME280;34426;52.180;4.462;2024-03-08T00:39:41;101948.88;;;3.14;100.00
48630;BME280;34426;52.180;4.462;2024-03-08T00:42:08;101944.06;;;3.02;100.00
48630;BME280;34426;52.180;4.462;2024-03-08T00:44:33;101946.22;;;3.06;100.00
48630;BME280;34426;52.180;4.462;2024-03-08T00:46:59;101937.72;;;3.08;100.00
48630;BME280;34426;52.180;4.462;2024-03-08T00:49:24;101932.00;;;3.09;100.00
48630;BME280;34426;52.180;4.462;2024-03-08T00:51:50;101933.91;;;3.09;100.00
48630;BME280;34426;52.180;4.462;2024-03-08T00:54:15;101925.34;;;3.04;100.00
48630;BME280;34426;52.180;4.462;2024-03-08T00:56:41;101921.16;;;3.08;100.00
48630;BME280;34426;52.180;4.462;2024-03-08T00:59:08;101927.16;;;3.11;100.00
48630;BME280;34426;52.180;4.462;2024-03-08T01:01:33;101919.75;;;2.97;100.00
48630;BME280;34426;52.180;4.462;2024-03-08T01:03:59;101919.44;;;3.07;100.00
48630;BME280;34426;52.180;4.462;2024-03-08T01:06:24;101918.91;;;2.96;100.00
48630;BME280;34426;52.180;4.462;2024-03-08T01:08:50;101917.38;;;2.94;100.00
48630;BME280;34426;52.180;4.462;2024-03-08T01:11:15;101906.50;;;2.92;100.00
48630;BME280;34426;52.180;4.462;2024-03-08T01:13:40;101903.09;;;2.90;100.00
48630;BME280;34426;52.180;4.462;2024-03-08T01:16:07;101895.94;;;2.96;100.00
48630;BME280;34426;52.180;4.462;2024-03-08T01:18:33;101896.22;;;2.86;100.00
48630;BME280;34426;52.180;4.462;2024-03-08T01:20:58;101892.41;;;2.87;100.00
48630;BME280;34426;52.180;4.462;2024-03-08T01:23:24;101888.59;;;2.88;100.00
48630;BME280;34426;52.180;4.462;2024-03-08T01:25:49;101887.28;;;2.84;100.00
48630;BME280;34426;52.180;4.462;2024-03-08T01:28:15;101886.50;;;2.90;100.00
48630;BME280;34426;52.180;4.462;2024-03-08T01:30:40;101882.31;;;2.80;100.00
48630;BME280;34426;52.180;4.462;2024-03-08T01:33:07;101881.28;;;2.81;100.00
48630;BME280;34426;52.180;4.462;2024-03-08T01:35:32;101874.88;;;2.80;100.00
48630;BME280;34426;52.180;4.462;2024-03-08T01:37:58;101872.59;;;2.84;100.00
48630;BME280;34426;52.180;4.462;2024-03-08T01:40:23;101866.22;;;2.68;100.00
48630;BME280;34426;52.180;4.462;2024-03-08T01:42:49;101866.78;;;2.79;100.00
48630;BME280;34426;52.180;4.462;2024-03-08T01:45:14;101865.75;;;2.80;100.00
48630;BME280;34426;52.180;4.462;2024-03-08T01:47:40;101865.47;;;2.75;100.00
48630;BME280;34426;52.180;4.462;2024-03-08T01:50:07;101858.41;;;2.72;100.00
48630;BME280;34426;52.180;4.462;2024-03-08T01:52:34;101856.88;;;2.70;100.00
48630;BME280;34426;52.180;4.462;2024-03-08T01:55:01;101849.56;;;2.62;100.00
48630;BME280;34426;52.180;4.462;2024-03-08T01:57:27;101855.94;;;2.62;100.00
48630;BME280;34426;52.180;4.462;2024-03-08T01:59:53;101852.50;;;2.60;100.00
48630;BME280;34426;52.180;4.462;2024-03-08T02:02:18;101853.59;;;2.59;100.00
48630;BME280;34426;52.180;4.462;2024-03-08T02:04:44;101846.44;;;2.50;100.00
48630;BME280;34426;52.180;4.462;2024-03-08T02:07:11;101843.78;;;2.42;100.00
48630;BME280;34426;52.180;4.462;2024-03-08T02:09:37;101846.81;;;2.47;100.00
48630;BME280;34426;52.180;4.462;2024-03-08T02:12:03;101848.63;;;2.55;100.00
48630;BME280;34426;52.180;4.462;2024-03-08T02:14:28;101841.31;;;2.47;100.00
48630;BME280;34426;52.180;4.462;2024-03-08T02:16:54;101837.41;;;2.56;100.00
48630;BME280;34426;52.180;4.462;2024-03-08T02:19:19;101834.34;;;2.51;100.00
48630;BME280;34426;52.180;4.462;2024-03-08T02:21:46;101832.34;;;2.45;100.00
48630;BME280;34426;52.180;4.462;2024-03-08T02:24:12;101831.31;;;2.46;100.00
48630;BME280;34426;52.180;4.462;2024-03-08T02:26:38;101827.97;;;2.36;100.00
48630;BME280;34426;52.180;4.462;2024-03-08T02:29:03;101831.78;;;2.35;100.00
48630;BME280;34426;52.180;4.462;2024-03-08T02:31:29;101819.59;;;2.44;100.00
48630;BME280;34426;52.180;4.462;2024-03-08T02:33:55;101814.84;;;2.38;100.00
48630;BME280;34426;52.180;4.462;2024-03-08T02:36:20;101815.97;;;2.29;100.00
48630;BME280;34426;52.180;4.462;2024-03-08T02:38:47;101809.78;;;2.27;100.00
48630;BME280;34426;52.180;4.462;2024-03-08T02:41:12;101809.97;;;2.25;100.00
48630;BME280;34426;52.180;4.462;2024-03-08T02:43:39;101808.44;;;2.23;100.00
48630;BME280;34426;52.180;4.462;2024-03-08T02:46:04;101801.88;;;2.24;100.00
48630;BME280;34426;52.180;4.462;2024-03-08T02:48:30;101799.50;;;2.21;100.00
48630;BME280;34426;52.180;4.462;2024-03-08T02:50:55;101792.56;;;2.25;100.00
48630;BME280;34426;52.180;4.462;2024-03-08T02:53:20;101798.16;;;2.17;100.00
48630;BME280;34426;52.180;4.462;2024-03-08T02:55:47;101794.66;;;2.23;100.00
48630;BME280;34426;52.180;4.462;2024-03-08T02:58:13;101788.97;;;2.10;100.00
48630;BME280;34426;52.180;4.462;2024-03-08T03:00:38;101788.84;;;2.18;100.00
48630;BME280;34426;52.180;4.462;2024-03-08T03:03:04;101784.84;;;2.06;100.00
48630;BME280;34426;52.180;4.462;2024-03-08T03:05:30;101782.41;;;2.11;100.00
48630;BME280;34426;52.180;4.462;2024-03-08T03:07:56;101783.53;;;2.16;100.00
48630;BME280;34426;52.180;4.462;2024-03-08T03:10:21;101777.06;;;2.09;100.00
48630;BME280;34426;52.180;4.462;2024-03-08T03:12:48;101776.75;;;2.19;100.00
48630;BME280;34426;52.180;4.462;2024-03-08T03:15:14;101771.81;;;1.99;100.00
48630;BME280;34426;52.180;4.462;2024-03-08T03:17:40;101773.25;;;2.10;100.00
48630;BME280;34426;52.180;4.462;2024-03-08T03:20:06;101770.41;;;2.04;100.00
48630;BME280;34426;52.180;4.462;2024-03-08T03:22:32;101756.13;;;2.00;100.00
48630;BME280;34426;52.180;4.462;2024-03-08T03:24:57;101761.44;;;2.02;100.00
48630;BME280;34426;52.180;4.462;2024-03-08T03:27:24;101760.41;;;2.03;100.00
48630;BME280;34426;52.180;4.462;2024-03-08T03:29:51;101751.56;;;1.92;100.00
48630;BME280;34426;52.180;4.462;2024-03-08T03:32:16;101753.63;;;1.90;100.00
48630;BME280;34426;52.180;4.462;2024-03-08T03:34:42;101750.88;;;1.90;100.00
48630;BME280;34426;52.180;4.462;2024-03-08T03:37:07;101756.19;;;1.77;100.00
48630;BME280;34426;52.180;4.462;2024-03-08T03:39:33;101749.53;;;1.86;100.00
48630;BME280;34426;52.180;4.462;2024-03-08T03:41:58;101746.50;;;1.81;100.00
48630;BME280;34426;52.180;4.462;2024-03-08T03:44:24;101747.91;;;1.77;100.00
48630;BME280;34426;52.180;4.462;2024-03-08T03:46:51;101739.63;;;1.77;100.00
48630;BME280;34426;52.180;4.462;2024-03-08T03:49:16;101753.16;;;1.72;100.00
48630;BME280;34426;52.180;4.462;2024-03-08T03:51:42;101748.03;;;1.69;100.00
48630;BME280;34426;52.180;4.462;2024-03-08T03:54:07;101743.75;;;1.66;100.00
48630;BME280;34426;52.180;4.462;2024-03-08T03:56:34;101743.25;;;1.63;100.00
48630;BME280;34426;52.180;4.462;2024-03-08T03:58:59;101736.03;;;1.62;100.00
48630;BME280;34426;52.180;4.462;2024-03-08T04:01:25;101735.66;;;1.65;100.00
48630;BME280;34426;52.180;4.462;2024-03-08T04:03:51;101736.88;;;1.62;100.00
48630;BME280;34426;52.180;4.462;2024-03-08T04:06:17;101730.22;;;1.57;100.00
48630;BME280;34426;52.180;4.462;2024-03-08T04:08:42;101734.50;;;1.59;100.00
48630;BME280;34426;52.180;4.462;2024-03-08T04:11:08;101727.09;;;1.60;100.00
48630;BME280;34426;52.180;4.462;2024-03-08T04:13:33;101725.25;;;1.52;100.00
48630;BME280;34426;52.180;4.462;2024-03-08T04:15:59;101721.72;;;1.44;100.00
48630;BME280;34426;52.180;4.462;2024-03-08T04:18:24;101722.47;;;1.38;100.00
48630;BME280;34426;52.180;4.462;2024-03-08T04:20:51;101717.56;;;1.48;100.00
48630;BME280;34426;52.180;4.462;2024-03-08T04:23:17;101713.28;;;1.45;100.00
48630;BME280;34426;52.180;4.462;2024-03-08T04:25:42;101710.69;;;1.44;100.00
48630;BME280;34426;52.180;4.462;2024-03-08T04:28:08;101713.34;;;1.37;100.00
48630;BME280;34426;52.180;4.462;2024-03-08T04:30:33;101706.97;;;1.37;100.00
48630;BME280;34426;52.180;4.462;2024-03-08T04:32:59;101713.34;;;1.37;100.00
48630;BME280;34426;52.180;4.462;2024-03-08T04:35:24;101714.56;;;1.34;100.00
48630;BME280;34426;52.180;4.462;2024-03-08T04:37:51;101704.97;;;1.30;100.00
48630;BME280;34426;52.180;4.462;2024-03-08T04:40:17;101706.97;;;1.37;100.00
48630;BME280;34426;52.180;4.462;2024-03-08T04:42:43;101703.72;;;1.33;100.00
48630;BME280;34426;52.180;4.462;2024-03-08T04:45:09;101707.09;;;1.28;100.00
48630;BME280;34426;52.180;4.462;2024-03-08T04:47:34;101698.16;;;1.26;100.00
48630;BME280;34426;52.180;4.462;2024-03-08T04:50:00;101699.09;;;1.33;100.00
48630;BME280;34426;52.180;4.462;2024-03-08T04:52:25;101701.56;;;1.28;100.00
48630;BME280;34426;52.180;4.462;2024-03-08T04:54:52;101691.41;;;1.29;100.00
48630;BME280;34426;52.180;4.462;2024-03-08T04:57:18;101695.47;;;1.33;100.00
48630;BME280;34426;52.180;4.462;2024-03-08T04:59:43;101696.06;;;1.28;100.00
48630;BME280;34426;52.180;4.462;2024-03-08T05:02:08;101690.53;;;1.28;100.00
48630;BME280;34426;52.180;4.462;2024-03-08T05:04:34;101688.84;;;1.27;100.00
48630;BME280;34426;52.180;4.462;2024-03-08T05:06:59;101685.78;;;1.22;100.00
48630;BME280;34426;52.180;4.462;2024-03-08T05:09:25;101680.28;;;1.22;100.00
48630;BME280;34426;52.180;4.462;2024-03-08T05:11:52;101680.63;;;1.19;100.00
48630;BME280;34426;52.180;4.462;2024-03-08T05:14:17;101680.72;;;1.11;100.00
48630;BME280;34426;52.180;4.462;2024-03-08T05:16:43;101672.16;;;1.06;100.00
48630;BME280;34426;52.180;4.462;2024-03-08T05:19:08;101679.66;;;1.12;100.00
48630;BME280;34426;52.180;4.462;2024-03-08T05:21:34;101680.91;;;1.10;100.00
48630;BME280;34426;52.180;4.462;2024-03-08T05:23:59;101675.28;;;1.03;100.00
48630;BME280;34426;52.180;4.462;2024-03-08T05:26:25;101680.66;;;0.96;100.00
48630;BME280;34426;52.180;4.462;2024-03-08T05:28:52;101685.31;;;0.96;100.00
48630;BME280;34426;52.180;4.462;2024-03-08T05:31:20;101676.50;;;1.00;100.00
48630;BME280;34426;52.180;4.462;2024-03-08T05:33:45;101672.22;;;0.98;100.00
48630;BME280;34426;52.180;4.462;2024-03-08T05:36:11;101678.94;;;0.95;100.00
48630;BME280;34426;52.180;4.462;2024-03-08T05:38:36;101670.50;;;0.97;100.00
48630;BME280;34426;52.180;4.462;2024-03-08T05:41:03;101672.22;;;0.98;100.00
48630;BME280;34426;52.180;4.462;2024-03-08T05:43:28;101670.13;;;1.00;100.00
48630;BME280;34426;52.180;4.462;2024-03-08T05:45:55;101669.28;;;0.99;100.00
48630;BME280;34426;52.180;4.462;2024-03-08T05:48:21;101670.97;;;1.00;100.00
48630;BME280;34426;52.180;4.462;2024-03-08T05:50:47;101672.09;;;0.91;100.00
48630;BME280;34426;52.180;4.462;2024-03-08T05:53:14;101667.94;;;0.95;100.00
48630;BME280;34426;52.180;4.462;2024-03-08T05:55:39;101671.03;;;0.92;100.00
48630;BME280;34426;52.180;4.462;2024-03-08T05:58:05;101662.97;;;0.91;100.00
48630;BME280;34426;52.180;4.462;2024-03-08T06:00:30;101670.19;;;0.92;100.00
48630;BME280;34426;52.180;4.462;2024-03-08T06:02:57;101659.34;;;0.90;100.00
48630;BME280;34426;52.180;4.462;2024-03-08T06:05:23;101657.09;;;0.94;100.00
48630;BME280;34426;52.180;4.462;2024-03-08T06:07:48;101655.06;;;0.88;100.00
48630;BME280;34426;52.180;4.462;2024-03-08T06:10:14;101655.56;;;0.91;100.00
48630;BME280;34426;52.180;4.462;2024-03-08T06:12:40;101650.06;;;0.91;100.00
48630;BME280;34426;52.180;4.462;2024-03-08T06:15:06;101641.97;;;0.90;100.00
48630;BME280;34426;52.180;4.462;2024-03-08T06:17:32;101649.56;;;0.88;100.00
48630;BME280;34426;52.180;4.462;2024-03-08T06:19:59;101649.97;;;0.85;100.00
48630;BME280;34426;52.180;4.462;2024-03-08T06:22:24;101640.66;;;0.86;100.00
48630;BME280;34426;52.180;4.462;2024-03-08T06:24:50;101644.66;;;0.83;100.00
48630;BME280;34426;52.180;4.462;2024-03-08T06:27:15;101644.47;;;0.85;100.00
48630;BME280;34426;52.180;4.462;2024-03-08T06:29:40;101647.13;;;0.93;100.00
48630;BME280;34426;52.180;4.462;2024-03-08T06:32:06;101644.06;;;0.88;100.00
48630;BME280;34426;52.180;4.462;2024-03-08T06:34:32;101640.56;;;0.94;100.00
48630;BME280;34426;52.180;4.462;2024-03-08T06:36:59;101643.69;;;0.91;100.00
48630;BME280;34426;52.180;4.462;2024-03-08T06:39:24;101638.31;;;0.97;100.00
48630;BME280;34426;52.180;4.462;2024-03-08T06:41:50;101638.78;;;1.01;100.00
48630;BME280;34426;52.180;4.462;2024-03-08T06:44:15;101634.63;;;1.05;100.00
48630;BME280;34426;52.180;4.462;2024-03-08T06:46:41;101626.16;;;1.07;100.00
48630;BME280;34426;52.180;4.462;2024-03-08T06:49:06;101631.19;;;1.03;100.00
48630;BME280;34426;52.180;4.462;2024-03-08T06:51:32;101623.22;;;1.08;100.00
48630;BME280;34426;52.180;4.462;2024-03-08T06:53:59;101622.19;;;1.09;100.00
48630;BME280;34426;52.180;4.462;2024-03-08T06:56:24;101617.84;;;1.15;100.00
48630;BME280;34426;52.180;4.462;2024-03-08T06:58:50;101619.66;;;1.22;100.00
48630;BME280;34426;52.180;4.462;2024-03-08T07:01:15;101623.06;;;1.24;100.00
48630;BME280;34426;52.180;4.462;2024-03-08T07:03:41;101616.72;;;1.24;100.00
48630;BME280;34426;52.180;4.462;2024-03-08T07:06:07;101616.59;;;1.32;100.00
48630;BME280;34426;52.180;4.462;2024-03-08T07:08:32;101608.25;;;1.25;100.00
48630;BME280;34426;52.180;4.462;2024-03-08T07:10:59;101617.63;;;1.31;100.00
48630;BME280;34426;52.180;4.462;2024-03-08T07:13:25;101612.41;;;1.36;100.00
48630;BME280;34426;52.180;4.462;2024-03-08T07:15:50;101609.75;;;1.43;100.00
48630;BME280;34426;52.180;4.462;2024-03-08T07:18:16;101606.81;;;1.44;100.00
48630;BME280;34426;52.180;4.462;2024-03-08T07:20:41;101604.81;;;1.53;100.00
48630;BME280;34426;52.180;4.462;2024-03-08T07:23:07;101597.88;;;1.57;100.00
48630;BME280;34426;52.180;4.462;2024-03-08T07:25:33;101590.09;;;1.60;100.00
48630;BME280;34426;52.180;4.462;2024-03-08T07:27:59;101591.31;;;1.73;100.00
48630;BME280;34426;52.180;4.462;2024-03-08T07:30:26;101591.56;;;1.78;100.00
48630;BME280;34426;52.180;4.462;2024-03-08T07:32:52;101601.38;;;1.80;100.00
48630;BME280;34426;52.180;4.462;2024-03-08T07:35:18;101601.56;;;1.79;100.00
48630;BME280;34426;52.180;4.462;2024-03-08T07:37:45;101598.50;;;1.88;100.00
48630;BME280;34426;52.180;4.462;2024-03-08T07:40:13;101589.47;;;1.94;100.00
48630;BME280;34426;52.180;4.462;2024-03-08T07:42:38;101593.47;;;1.92;100.00
48630;BME280;34426;52.180;4.462;2024-03-08T07:45:07;101589.28;;;1.96;100.00
48630;BME280;34426;52.180;4.462;2024-03-08T07:47:32;101573.47;;;2.05;100.00
48630;BME280;34426;52.180;4.462;2024-03-08T07:49:58;101580.78;;;2.12;99.92
48630;BME280;34426;52.180;4.462;2024-03-08T07:52:23;101578.88;;;2.13;99.99
48630;BME280;34426;52.180;4.462;2024-03-08T07:54:49;101583.19;;;2.22;99.92
48630;BME280;34426;52.180;4.462;2024-03-08T07:57:14;101582.81;;;2.25;99.24
48630;BME280;34426;52.180;4.462;2024-03-08T07:59:40;101577.81;;;2.35;98.80
48630;BME280;34426;52.180;4.462;2024-03-08T08:02:06;101579.06;;;2.32;99.01
48630;BME280;34426;52.180;4.462;2024-03-08T08:04:32;101578.47;;;2.37;98.84
48630;BME280;34426;52.180;4.462;2024-03-08T08:06:57;101582.94;;;2.38;99.37
48630;BME280;34426;52.180;4.462;2024-03-08T08:09:23;101565.41;;;2.46;98.98
48630;BME280;34426;52.180;4.462;2024-03-08T08:11:48;101563.97;;;2.50;97.98
48630;BME280;34426;52.180;4.462;2024-03-08T08:14:14;101560.59;;;2.54;98.56
48630;BME280;34426;52.180;4.462;2024-03-08T08:16:39;101570.44;;;2.63;96.79
48630;BME280;34426;52.180;4.462;2024-03-08T08:19:06;101561.28;;;2.63;96.46
48630;BME280;34426;52.180;4.462;2024-03-08T08:21:31;101554.97;;;2.69;97.00
48630;BME280;34426;52.180;4.462;2024-03-08T08:23:57;101559.25;;;2.72;95.78
48630;BME280;34426;52.180;4.462;2024-03-08T08:26:22;101558.31;;;2.86;95.80
48630;BME280;34426;52.180;4.462;2024-03-08T08:28:48;101550.50;;;2.89;96.69
48630;BME280;34426;52.180;4.462;2024-03-08T08:31:13;101550.28;;;2.91;95.44
48630;BME280;34426;52.180;4.462;2024-03-08T08:33:39;101550.09;;;2.92;95.87
48630;BME280;34426;52.180;4.462;2024-03-08T08:36:06;101551.00;;;2.99;95.74
48630;BME280;34426;52.180;4.462;2024-03-08T08:38:32;101551.44;;;3.03;96.10
48630;BME280;34426;52.180;4.462;2024-03-08T08:40:58;101541.72;;;3.14;95.23
48630;BME280;34426;52.180;4.462;2024-03-08T08:43:23;101535.19;;;3.21;94.52
48630;BME280;34426;52.180;4.462;2024-03-08T08:45:49;101541.00;;;3.33;93.95
48630;BME280;34426;52.180;4.462;2024-03-08T08:48:14;101525.50;;;3.39;93.84
48630;BME280;34426;52.180;4.462;2024-03-08T08:50:40;101528.94;;;3.41;93.33
48630;BME280;34426;52.180;4.462;2024-03-08T08:53:06;101521.28;;;3.49;93.73
48630;BME280;34426;52.180;4.462;2024-03-08T08:55:32;101523.41;;;3.47;93.19
48630;BME280;34426;52.180;4.462;2024-03-08T08:57:58;101516.44;;;3.58;92.98
48630;BME280;34426;52.180;4.462;2024-03-08T09:00:23;101504.72;;;3.56;93.09
48630;BME280;34426;52.180;4.462;2024-03-08T09:02:49;101518.78;;;3.61;92.83
48630;BME280;34426;52.180;4.462;2024-03-08T09:05:14;101516.28;;;3.66;92.12
48630;BME280;34426;52.180;4.462;2024-03-08T09:07:40;101500.97;;;3.70;92.66
48630;BME280;34426;52.180;4.462;2024-03-08T09:10:07;101500.16;;;3.76;91.57
48630;BME280;34426;52.180;4.462;2024-03-08T09:12:32;101499.09;;;3.84;91.75
48630;BME280;34426;52.180;4.462;2024-03-08T09:14:58;101497.44;;;3.89;91.58
48630;BME280;34426;52.180;4.462;2024-03-08T09:17:23;101492.09;;;3.94;91.50
48630;BME280;34426;52.180;4.462;2024-03-08T09:19:49;101499.56;;;4.00;91.86
48630;BME280;34426;52.180;4.462;2024-03-08T09:22:14;101487.44;;;4.08;90.98
48630;BME280;34426;52.180;4.462;2024-03-08T09:24:40;101484.28;;;4.18;89.43
48630;BME280;34426;52.180;4.462;2024-03-08T09:27:07;101478.53;;;4.26;89.89
48630;BME280;34426;52.180;4.462;2024-03-08T09:29:32;101475.56;;;4.27;89.73
48630;BME280;34426;52.180;4.462;2024-03-08T09:31:58;101474.06;;;4.38;89.93
48630;BME280;34426;52.180;4.462;2024-03-08T09:34:23;101465.75;;;4.45;88.60
48630;BME280;34426;52.180;4.462;2024-03-08T09:36:49;101468.53;;;4.45;88.90
48630;BME280;34426;52.180;4.462;2024-03-08T09:39:14;101456.81;;;4.49;88.44
48630;BME280;34426;52.180;4.462;2024-03-08T09:41:40;101457.66;;;4.56;88.46
48630;BME280;34426;52.180;4.462;2024-03-08T09:44:06;101447.84;;;4.60;87.76
48630;BME280;34426;52.180;4.462;2024-03-08T09:46:32;101447.44;;;4.63;88.13
48630;BME280;34426;52.180;4.462;2024-03-08T09:48:58;101440.19;;;4.76;87.16
48630;BME280;34426;52.180;4.462;2024-03-08T09:51:27;101437.56;;;4.81;87.41
48630;BME280;34426;52.180;4.462;2024-03-08T09:53:53;101433.31;;;4.85;88.16
48630;BME280;34426;52.180;4.462;2024-03-08T09:56:19;101421.97;;;4.99;86.14
48630;BME280;34426;52.180;4.462;2024-03-08T09:58:44;101418.31;;;5.12;85.32
48630;BME280;34426;52.180;4.462;2024-03-08T10:01:11;101405.91;;;5.21;85.49
48630;BME280;34426;52.180;4.462;2024-03-08T10:03:37;101402.63;;;5.38;84.67
48630;BME280;34426;52.180;4.462;2024-03-08T10:06:04;101392.56;;;5.50;83.71
48630;BME280;34426;52.180;4.462;2024-03-08T10:08:29;101396.78;;;5.59;82.69
48630;BME280;34426;52.180;4.462;2024-03-08T10:10:55;101382.63;;;5.67;82.33
48630;BME280;34426;52.180;4.462;2024-03-08T10:13:21;101378.75;;;5.68;81.51
48630;BME280;34426;52.180;4.462;2024-03-08T10:15:46;101378.31;;;5.71;82.72
48630;BME280;34426;52.180;4.462;2024-03-08T10:18:13;101379.50;;;5.88;81.97
48630;BME280;34426;52.180;4.462;2024-03-08T10:20:39;101373.66;;;6.03;81.76
48630;BME280;34426;52.180;4.462;2024-03-08T10:23:04;101366.31;;;6.09;80.72
48630;BME280;34426;52.180;4.462;2024-03-08T10:25:32;101365.59;;;6.20;81.07
48630;BME280;34426;52.180;4.462;2024-03-08T10:27:57;101354.66;;;6.25;79.41
48630;BME280;34426;52.180;4.462;2024-03-08T10:30:23;101359.59;;;6.23;79.19
48630;BME280;34426;52.180;4.462;2024-03-08T10:32:49;101346.22;;;6.38;79.72
48630;BME280;34426;52.180;4.462;2024-03-08T10:35:17;101351.47;;;6.46;78.71
48630;BME280;34426;52.180;4.462;2024-03-08T10:37:45;101343.16;;;6.46;78.33
48630;BME280;34426;52.180;4.462;2024-03-08T10:40:15;101338.34;;;6.53;78.91
48630;BME280;34426;52.180;4.462;2024-03-08T10:42:50;101332.25;;;6.63;79.77
48630;BME280;34426;52.180;4.462;2024-03-08T10:45:23;101321.91;;;6.70;78.67
48630;BME280;34426;52.180;4.462;2024-03-08T10:48:04;101321.38;;;6.80;78.51
48630;BME280;34426;52.180;4.462;2024-03-08T10:50:35;101310.47;;;6.96;79.26
48630;BME280;34426;52.180;4.462;2024-03-08T10:53:03;101304.38;;;7.06;77.14
48630;BME280;34426;52.180;4.462;2024-03-08T10:55:31;101297.09;;;7.05;76.52
48630;BME280;34426;52.180;4.462;2024-03-08T10:57:58;101291.53;;;7.05;75.85
48630;BME280;34426;52.180;4.462;2024-03-08T11:00:23;101286.50;;;7.14;76.11
48630;BME280;34426;52.180;4.462;2024-03-08T11:02:49;101282.63;;;7.15;76.14
48630;BME280;34426;52.180;4.462;2024-03-08T11:05:31;101281.00;;;7.25;75.25
48630;BME280;34426;52.180;4.462;2024-03-08T11:07:58;101279.22;;;7.31;74.05
48630;BME280;34426;52.180;4.462;2024-03-08T11:10:24;101269.19;;;7.42;73.65
48630;BME280;34426;52.180;4.462;2024-03-08T11:12:49;101266.06;;;7.50;73.22
48630;BME280;34426;52.180;4.462;2024-03-08T11:15:15;101262.94;;;7.58;72.50
48630;BME280;34426;52.180;4.462;2024-03-08T11:17:44;101264.03;;;7.57;72.71
48630;BME280;34426;52.180;4.462;2024-03-08T11:20:11;101255.00;;;7.73;72.91
48630;BME280;34426;52.180;4.462;2024-03-08T11:22:38;101248.69;;;7.66;71.69
48630;BME280;34426;52.180;4.462;2024-03-08T11:25:08;101234.03;;;7.71;71.32
48630;BME280;34426;52.180;4.462;2024-03-08T11:27:35;101228.97;;;7.79;71.35
48630;BME280;34426;52.180;4.462;2024-03-08T11:30:02;101219.63;;;7.85;70.29
48630;BME280;34426;52.180;4.462;2024-03-08T11:32:29;101220.97;;;7.94;69.48
48630;BME280;34426;52.180;4.462;2024-03-08T11:34:54;101218.06;;;8.01;69.61
48630;BME280;34426;52.180;4.462;2024-03-08T11:37:21;101206.22;;;8.06;69.37
48630;BME280;34426;52.180;4.462;2024-03-08T11:39:47;101215.16;;;8.08;68.83
48630;BME280;34426;52.180;4.462;2024-03-08T11:42:15;101203.66;;;8.16;69.03
48630;BME280;34426;52.180;4.462;2024-03-08T11:44:40;101195.88;;;8.29;67.01
48630;BME280;34426;52.180;4.462;2024-03-08T11:47:08;101188.63;;;8.40;66.18
48630;BME280;34426;52.180;4.462;2024-03-08T11:49:34;101186.78;;;8.46;64.71
48630;BME280;34426;52.180;4.462;2024-03-08T11:51:59;101191.00;;;8.60;66.54
48630;BME280;34426;52.180;4.462;2024-03-08T11:54:25;101176.06;;;8.66;67.47
48630;BME280;34426;52.180;4.462;2024-03-08T11:56:51;101168.44;;;8.61;64.63
48630;BME280;34426;52.180;4.462;2024-03-08T11:59:18;101169.13;;;8.68;66.41
48630;BME280;34426;52.180;4.462;2024-03-08T12:01:59;101176.13;;;8.83;67.10
48630;BME280;34426;52.180;4.462;2024-03-08T12:04:24;101169.03;;;8.92;65.08
48630;BME280;34426;52.180;4.462;2024-03-08T12:06:50;101167.59;;;8.89;65.69
48630;BME280;34426;52.180;4.462;2024-03-08T12:09:16;101161.13;;;9.00;63.50
48630;BME280;34426;52.180;4.462;2024-03-08T12:11:41;101172.38;;;9.06;64.32
48630;BME280;34426;52.180;4.462;2024-03-08T12:14:07;101163.59;;;9.14;64.00
48630;BME280;34426;52.180;4.462;2024-03-08T12:16:34;101149.97;;;9.17;64.53
48630;BME280;34426;52.180;4.462;2024-03-08T12:19:01;101150.66;;;9.24;63.63
48630;BME280;34426;52.180;4.462;2024-03-08T12:21:27;101143.56;;;9.33;63.71
48630;BME280;34426;52.180;4.462;2024-03-08T12:24:04;101144.84;;;9.43;63.33
48630;BME280;34426;52.180;4.462;2024-03-08T12:26:30;101137.66;;;9.47;62.38
48630;BME280;34426;52.180;4.462;2024-03-08T12:29:14;101131.81;;;9.48;62.04
48630;BME280;34426;52.180;4.462;2024-03-08T12:31:42;101125.47;;;9.53;61.38
48630;BME280;34426;52.180;4.462;2024-03-08T12:34:08;101117.31;;;9.68;63.01
48630;BME280;34426;52.180;4.462;2024-03-08T12:36:33;101110.56;;;9.64;61.42
48630;BME280;34426;52.180;4.462;2024-03-08T12:38:59;101114.09;;;9.76;61.32
48630;BME280;34426;52.180;4.462;2024-03-08T12:41:24;101097.94;;;9.78;62.12
48630;BME280;34426;52.180;4.462;2024-03-08T12:43:50;101102.56;;;9.89;60.34
48630;BME280;34426;52.180;4.462;2024-03-08T12:46:15;101102.09;;;9.97;60.66
48630;BME280;34426;52.180;4.462;2024-03-08T12:48:43;101109.00;;;10.12;61.38